Time;durP1;ratioP1;P1;durP2;ratioP2;P2;SDS_P1;SDS_P2;PMS_P1;PMS_P2;Temp;Humidity;BMP_temperature;BMP_pressure;BME280_temperature;BME280_humidity;BME280_pressure;Samples;Min_cycle;Max_cycle;Signal;HPM_P1;HPM_P2
2022/10/02 00:02:30;;;;;;;18.48;3.08;;;11.50;99.90;;;;;;5052772;28;20044;-63
2022/10/02 00:05:02;;;;;;;12.52;3.80;;;11.50;99.90;;;;;;5051829;28;20048;-63
2022/10/02 00:07:36;;;;;;;12.48;3.70;;;11.40;99.90;;;;;;5051344;28;20120;-63
2022/10/02 00:10:11;;;;;;;11.20;2.97;;;11.40;99.90;;;;;;5052549;28;20029;-63
2022/10/02 00:12:37;;;;;;;9.50;2.88;;;11.40;99.90;;;;;;5051510;28;20115;-63
2022/10/02 00:15:14;;;;;;;10.65;2.70;;;11.40;99.90;;;;;;5052459;28;20041;-63
2022/10/02 00:17:45;;;;;;;13.10;3.25;;;11.40;99.90;;;;;;5052226;28;20398;-63
2022/10/02 00:20:16;;;;;;;11.52;3.95;;;11.30;99.90;;;;;;5052108;28;20069;-63
2022/10/02 00:23:15;;;;;;;13.82;3.83;;;11.40;99.90;;;;;;5051143;28;20037;-63
2022/10/02 00:25:50;;;;;;;16.15;3.05;;;11.40;99.90;;;;;;5051911;28;20041;-63
2022/10/02 00:29:01;;;;;;;19.38;4.07;;;11.40;99.90;;;;;;5052424;28;20393;-64
2022/10/02 00:31:43;;;;;;;15.52;3.78;;;11.40;99.90;;;;;;5035384;28;20086;-64
2022/10/02 00:34:18;;;;;;;12.55;3.33;;;11.30;99.90;;;;;;5049746;28;20041;-63
2022/10/02 00:36:58;;;;;;;;;;;11.30;99.90;;;;;;5034573;28;20041;-63
2022/10/02 00:39:26;;;;;;;11.50;3.50;;;11.30;99.90;;;;;;5049954;28;19917;-63
2022/10/02 00:42:30;;;;;;;9.80;3.13;;;11.30;99.90;;;;;;5084693;28;20037;-64
2022/10/02 00:45:10;;;;;;;15.23;3.20;;;11.20;99.90;;;;;;5050600;28;20068;-64
2022/10/02 00:47:48;;;;;;;12.85;3.17;;;11.20;99.90;;;;;;5083462;28;20044;-63
2022/10/02 00:50:40;;;;;;;13.25;3.50;;;11.20;99.90;;;;;;5051717;28;20045;-64
2022/10/02 00:53:30;;;;;;;11.93;3.50;;;11.20;99.90;;;;;;5051254;28;20065;-63
2022/10/02 00:56:17;;;;;;;13.55;3.42;;;11.20;99.90;;;;;;5051573;28;20077;-64
2022/10/02 00:59:25;;;;;;;10.15;3.65;;;11.20;99.90;;;;;;5052334;28;20043;-64
2022/10/02 01:01:59;;;;;;;19.30;3.92;;;11.20;99.90;;;;;;5049556;28;20045;-63
2022/10/02 01:04:34;;;;;;;13.70;4.05;;;11.10;99.90;;;;;;5054589;28;20520;-63
2022/10/02 01:07:01;;;;;;;12.88;3.85;;;11.20;99.90;;;;;;5056154;28;20371;-63
2022/10/02 01:09:27;;;;;;;11.73;2.83;;;11.10;99.90;;;;;;5054090;28;20041;-63
2022/10/02 01:11:52;;;;;;;11.73;3.03;;;11.10;99.90;;;;;;5054560;28;20037;-64
2022/10/02 01:14:18;;;;;;;13.02;3.67;;;11.10;99.90;;;;;;5054905;28;20098;-63
2022/10/02 01:16:44;;;;;;;11.23;3.15;;;11.10;99.90;;;;;;5071001;28;20047;-64
2022/10/02 01:19:31;;;;;;;16.83;4.13;;;11.10;99.90;;;;;;5088406;28;20188;-63
2022/10/02 01:22:38;;;;;;;12.82;3.08;;;11.10;99.90;;;;;;5054915;28;20056;-63
2022/10/02 01:25:06;;;;;;;11.20;2.97;;;11.10;99.90;;;;;;5087141;28;20061;-63
2022/10/02 01:27:33;;;;;;;9.55;2.60;;;11.10;99.90;;;;;;5054154;28;20182;-63
2022/10/02 01:30:03;;;;;;;15.60;3.47;;;11.10;99.90;;;;;;5054338;28;20033;-63
2022/10/02 01:32:30;;;;;;;12.55;3.42;;;11.10;99.90;;;;;;5054433;28;20049;-64
2022/10/02 01:34:56;;;;;;;12.32;3.25;;;11.10;99.90;;;;;;5055137;28;20036;-63
2022/10/02 01:37:28;;;;;;;14.57;3.42;;;11.10;99.90;;;;;;5053311;28;20075;-63
2022/10/02 01:40:00;;;;;;;13.93;3.72;;;11.10;99.90;;;;;;5037322;28;20033;-63
2022/10/02 01:42:26;;;;;;;8.75;3.08;;;11.10;99.90;;;;;;5054772;28;20381;-63
2022/10/02 01:44:52;;;;;;;13.95;3.58;;;11.10;99.90;;;;;;5087208;28;20049;-64
2022/10/02 01:47:25;;;;;;;14.02;2.97;;;11.10;99.90;;;;;;5055304;28;20088;-63
2022/10/02 01:50:12;;;;;;;13.73;3.70;;;11.10;99.90;;;;;;5052663;28;20040;-64
2022/10/02 01:52:52;;;;;;;11.73;3.45;;;11.10;99.90;;;;;;5055490;28;20045;-63
2022/10/02 01:55:45;;;;;;;16.20;4.00;;;11.20;99.90;;;;;;5053610;28;20080;-63
2022/10/02 01:58:31;;;;;;;17.23;3.65;;;11.20;99.90;;;;;;5086871;28;20052;-64
2022/10/02 02:01:19;;;;;;;11.90;3.00;;;11.20;99.90;;;;;;5054161;28;20052;-63
2022/10/02 02:04:06;;;;;;;15.57;3.83;;;11.20;99.90;;;;;;5086444;28;20552;-64
2022/10/02 02:06:53;;;;;;;14.73;4.05;;;11.20;99.90;;;;;;5087317;28;20040;-63
2022/10/02 02:09:31;;;;;;;17.17;4.28;;;11.20;99.90;;;;;;5053272;28;20105;-64
2022/10/02 02:12:11;;;;;;;12.77;3.53;;;11.20;99.90;;;;;;5052913;28;20036;-64
2022/10/02 02:14:46;;;;;;;14.00;3.30;;;11.30;99.90;;;;;;5054570;28;20044;-64
2022/10/02 02:17:19;;;;;;;20.45;4.35;;;11.30;99.90;;;;;;5053852;28;20461;-64
2022/10/02 02:19:55;;;;;;;15.85;3.80;;;11.40;99.90;;;;;;5054458;28;20056;-64
2022/10/02 02:22:29;;;;;;;17.77;4.07;;;11.40;99.90;;;;;;5053476;28;20049;-64
2022/10/02 02:25:08;;;;;;;20.15;3.63;;;11.50;99.90;;;;;;5053798;28;20120;-64
2022/10/02 02:27:43;;;;;;;10.13;2.83;;;11.60;99.90;;;;;;5054367;28;20075;-64
2022/10/02 02:30:12;;;;;;;14.50;3.90;;;11.70;99.90;;;;;;5052849;28;20041;-64
2022/10/02 02:32:44;;;;;;;14.05;3.55;;;11.70;99.90;;;;;;5052676;28;20486;-64
2022/10/02 02:35:22;;;;;;;14.88;3.40;;;11.80;99.90;;;;;;5053150;28;20045;-64
2022/10/02 02:37:51;;;;;;;10.85;3.30;;;11.90;99.90;;;;;;5069739;28;20041;-64
2022/10/02 02:40:25;;;;;;;14.77;3.78;;;11.90;99.90;;;;;;5052924;28;20052;-64
2022/10/02 02:43:03;;;;;;;14.60;3.22;;;11.90;99.90;;;;;;5052371;28;20043;-64
2022/10/02 02:45:45;;;;;;;18.20;4.18;;;11.90;99.90;;;;;;5053701;28;20053;-64
2022/10/02 02:48:26;;;;;;;16.25;3.10;;;11.90;99.90;;;;;;5054440;28;20075;-64
2022/10/02 02:51:03;;;;;;;15.63;3.83;;;11.80;99.90;;;;;;5052436;28;20079;-64
2022/10/02 02:53:43;;;;;;;17.70;3.80;;;11.80;99.90;;;;;;5052706;28;20040;-63
2022/10/02 02:56:13;;;;;;;18.67;3.85;;;11.70;99.90;;;;;;5053878;28;20045;-64
2022/10/02 02:59:01;;;;;;;18.10;3.47;;;11.80;99.90;;;;;;5052996;28;20090;-63
2022/10/02 03:01:27;;;;;;;10.32;3.50;;;11.70;99.90;;;;;;5051852;28;20048;-64
2022/10/02 03:03:53;;;;;;;14.35;3.42;;;11.70;99.90;;;;;;5086146;28;20037;-63
2022/10/02 03:06:36;;;;;;;19.38;4.20;;;11.70;99.90;;;;;;5069324;28;20083;-64
2022/10/02 03:09:05;;;;;;;13.20;3.15;;;11.70;99.90;;;;;;5035700;28;20100;-64
2022/10/02 03:11:50;;;;;;;10.55;3.47;;;11.70;99.90;;;;;;5052229;28;20048;-64
2022/10/02 03:14:42;;;;;;;12.77;3.42;;;11.80;99.90;;;;;;5051604;28;20040;-63
2022/10/02 03:17:26;;;;;;;14.80;3.08;;;11.80;99.90;;;;;;5053590;28;20040;-64
2022/10/02 03:20:16;;;;;;;13.88;3.25;;;11.80;99.90;;;;;;5052478;28;20041;-63
2022/10/02 03:23:08;;;;;;;12.95;3.45;;;11.80;99.90;;;;;;5053052;28;20068;-64
2022/10/02 03:26:07;;;;;;;17.52;3.45;;;11.80;99.90;;;;;;5041071;28;20048;-63
2022/10/02 03:28:43;;;;;;;10.30;2.40;;;11.80;99.90;;;;;;5048075;28;20049;-64
2022/10/02 03:31:11;;;;;;;18.52;3.92;;;11.80;99.90;;;;;;5053035;28;20375;-63
2022/10/02 03:33:38;;;;;;;10.82;3.47;;;11.80;99.90;;;;;;5050980;28;20052;-63
2022/10/02 03:36:04;;;;;;;12.45;3.10;;;11.80;99.90;;;;;;5034504;28;20052;-63
2022/10/02 03:38:31;;;;;;;14.30;3.40;;;11.70;99.90;;;;;;5051506;28;20056;-63
2022/10/02 03:40:57;;;;;;;13.52;2.97;;;11.70;99.90;;;;;;5053120;28;20041;-64
2022/10/02 03:43:26;;;;;;;16.83;3.85;;;11.70;99.90;;;;;;5034125;28;20052;-63
2022/10/02 03:45:52;;;;;;;13.05;3.10;;;11.60;99.90;;;;;;5051614;28;20057;-64
2022/10/02 03:48:18;;;;;;;11.70;3.15;;;11.60;99.90;;;;;;5052891;28;20494;-64
2022/10/02 03:50:44;;;;;;;11.77;3.35;;;11.50;99.90;;;;;;5051483;28;20048;-64
2022/10/02 03:53:15;;;;;;;11.93;2.53;;;11.40;99.90;;;;;;5051345;28;20500;-63
2022/10/02 03:55:51;;;;;;;14.30;2.88;;;11.40;99.90;;;;;;5052862;28;20126;-64
2022/10/02 03:58:17;;;;;;;13.05;2.78;;;11.40;99.90;;;;;;5052929;28;20041;-64
2022/10/02 04:01:03;;;;;;;11.65;2.88;;;11.40;99.90;;;;;;5052616;28;20040;-63
2022/10/02 04:04:03;;;;;;;12.82;3.15;;;11.40;99.90;;;;;;5051454;28;20076;-63
2022/10/02 04:06:34;;;;;;;16.17;3.80;;;11.50;99.90;;;;;;5052958;28;20037;-63
2022/10/02 04:09:03;;;;;;;10.60;2.78;;;11.60;99.90;;;;;;5052549;28;20393;-63
2022/10/02 04:11:38;;;;;;;16.40;3.15;;;11.60;99.90;;;;;;5050553;28;20041;-64
2022/10/02 04:14:35;;;;;;;15.55;3.03;;;11.70;99.90;;;;;;5051215;28;20043;-63
2022/10/02 04:17:07;;;;;;;12.45;3.53;;;11.80;99.90;;;;;;5027061;28;20049;-63
2022/10/02 04:20:03;;;;;;;13.90;3.33;;;11.80;99.90;;;;;;5052387;28;20516;-63
2022/10/02 04:22:44;;;;;;;18.98;5.95;;;11.90;99.90;;;;;;5014060;28;20401;-63
2022/10/02 04:25:22;;;;;;;16.45;6.10;;;11.90;99.90;;;;;;5031989;28;20079;-63
2022/10/02 04:28:05;;;;;;;17.75;9.48;;;11.90;99.90;;;;;;5032527;28;20398;-63
2022/10/02 04:30:31;;;;;;;21.48;6.03;;;11.90;99.90;;;;;;5045902;28;20383;-63
2022/10/02 04:33:18;;;;;;;18.17;4.95;;;11.80;99.90;;;;;;5051350;28;20032;-63
2022/10/02 04:36:02;;;;;;;17.02;7.38;;;11.80;99.90;;;;;;5051215;28;20082;-63
2022/10/02 04:38:47;;;;;;;22.08;8.48;;;11.80;99.90;;;;;;5048842;28;20041;-63
2022/10/02 04:41:32;;;;;;;15.02;7.22;;;11.80;99.90;;;;;;5051983;28;20037;-63
2022/10/02 04:44:34;;;;;;;25.35;13.70;;;11.80;99.90;;;;;;5052139;28;20045;-63
2022/10/02 04:47:18;;;;;;;22.05;13.82;;;11.80;99.90;;;;;;5051140;28;20060;-63
2022/10/02 04:50:03;;;;;;;24.08;16.48;;;11.70;99.90;;;;;;5052494;28;20033;-63
2022/10/02 04:52:48;;;;;;;15.75;8.68;;;11.70;99.90;;;;;;5049584;28;20041;-63
2022/10/02 04:55:14;;;;;;;16.42;6.78;;;11.60;99.90;;;;;;5050650;28;20045;-64
2022/10/02 04:57:58;;;;;;;20.38;7.03;;;11.60;99.90;;;;;;5050525;28;20044;-63
2022/10/02 05:00:28;;;;;;;12.67;4.97;;;11.60;99.90;;;;;;5083598;28;20366;-63
2022/10/02 05:02:59;;;;;;;14.63;5.07;;;11.50;99.90;;;;;;5051885;28;20044;-63
2022/10/02 05:05:49;;;;;;;15.88;4.68;;;11.40;99.90;;;;;;5084284;28;20044;-63
2022/10/02 05:08:41;;;;;;;13.48;3.70;;;11.40;99.90;;;;;;5066324;28;20094;-63
2022/10/02 05:11:35;;;;;;;12.35;3.20;;;11.30;99.90;;;;;;5050782;28;20045;-63
2022/10/02 05:14:27;;;;;;;12.88;3.63;;;11.30;99.90;;;;;;5031112;28;20116;-63
2022/10/02 05:17:23;;;;;;;21.33;3.63;;;11.20;99.90;;;;;;5030488;28;20046;-63
2022/10/02 05:20:23;;;;;;;14.52;4.35;;;11.20;99.90;;;;;;5030929;28;20449;-63
2022/10/02 05:23:03;;;;;;;11.70;3.47;;;11.10;99.90;;;;;;5031561;28;20049;-63
2022/10/02 05:25:41;;;;;;;13.00;3.40;;;11.10;99.90;;;;;;5031906;28;20406;-64
2022/10/02 05:28:19;;;;;;;13.55;3.85;;;11.10;99.90;;;;;;5045814;28;20045;-63
2022/10/02 05:30:53;;;;;;;13.55;3.05;;;11.10;99.90;;;;;;5051617;28;20120;-63
2022/10/02 05:33:46;;;;;;;14.23;2.67;;;11.00;99.90;;;;;;5050554;28;20403;-63
2022/10/02 05:36:46;;;;;;;16.27;5.05;;;11.00;99.90;;;;;;5049461;28;20125;-63
2022/10/02 05:39:25;;;;;;;12.60;4.10;;;11.00;99.90;;;;;;5050230;28;20053;-63
2022/10/02 05:42:17;;;;;;;11.30;3.65;;;10.90;99.90;;;;;;5049572;28;20052;-63
2022/10/02 05:44:50;;;;;;;9.98;2.53;;;10.90;99.90;;;;;;5027173;28;20528;-63
2022/10/02 05:47:24;;;;;;;13.88;3.42;;;10.80;99.90;;;;;;5050016;28;20049;-63
2022/10/02 05:50:00;;;;;;;13.38;3.15;;;10.80;99.90;;;;;;5051780;28;20044;-63
2022/10/02 05:53:15;;;;;;;21.42;4.40;;;10.80;99.90;;;;;;5055339;28;20432;-63
2022/10/02 05:56:16;;;;;;;17.60;3.35;;;10.80;99.90;;;;;;5032382;28;20128;-63
2022/10/02 05:58:52;;;;;;;11.77;3.30;;;10.70;99.90;;;;;;5033164;28;20060;-63
2022/10/02 06:01:34;;;;;;;11.57;4.18;;;10.70;99.90;;;;;;5053855;28;20128;-63
2022/10/02 06:04:36;;;;;;;17.95;3.83;;;10.70;99.90;;;;;;5053836;28;20037;-63
2022/10/02 06:07:08;;;;;;;17.52;3.40;;;10.70;99.90;;;;;;5054889;28;20044;-63
2022/10/02 06:09:59;;;;;;;14.48;3.85;;;10.60;99.90;;;;;;5054215;28;20037;-63
2022/10/02 06:12:40;;;;;;;16.17;3.83;;;10.70;99.90;;;;;;5053350;28;20065;-63
2022/10/02 06:15:23;;;;;;;28.10;5.63;;;10.70;99.90;;;;;;5054693;28;20043;-63
2022/10/02 06:18:13;;;;;;;14.55;3.15;;;10.80;99.90;;;;;;5054232;28;20048;-63
2022/10/02 06:20:50;;;;;;;17.15;3.85;;;10.80;99.90;;;;;;5054357;28;20485;-63
2022/10/02 06:23:19;;;;;;;14.82;3.42;;;10.90;99.90;;;;;;5053125;28;20041;-63
2022/10/02 06:26:01;;;;;;;14.13;5.82;;;10.90;99.90;;;;;;5069096;28;20041;-63
2022/10/02 06:28:39;;;;;;;16.13;4.30;;;11.00;99.90;;;;;;5053048;28;20166;-63
2022/10/02 06:31:40;;;;;;;20.50;4.57;;;11.10;99.90;;;;;;5052476;28;20053;-63
2022/10/02 06:34:12;;;;;;;9.30;3.63;;;11.20;99.90;;;;;;5045021;28;20101;-63
2022/10/02 06:37:10;;;;;;;12.07;3.75;;;11.20;99.90;;;;;;5053307;28;20406;-63
2022/10/02 06:39:58;;;;;;;17.65;4.63;;;11.50;99.90;;;;;;5052363;28;20083;-63
2022/10/02 06:42:34;;;;;;;22.05;5.85;;;11.60;99.90;;;;;;5052730;28;20116;-63
2022/10/02 06:45:14;;;;;;;16.92;7.22;;;11.70;99.90;;;;;;5051587;28;20142;-63
2022/10/02 06:48:09;;;;;;;19.40;6.32;;;11.80;99.90;;;;;;5054352;28;20049;-63
2022/10/02 06:50:50;;;;;;;15.40;4.50;;;11.90;99.90;;;;;;5052794;28;20111;-63
2022/10/02 06:53:30;;;;;;;10.43;4.53;;;11.90;99.90;;;;;;5053277;28;20055;-63
2022/10/02 06:56:21;;;;;;;12.52;4.85;;;11.90;99.90;;;;;;5052860;28;20048;-63
2022/10/02 06:58:54;;;;;;;13.73;4.97;;;11.90;99.90;;;;;;5051515;28;20060;-63
2022/10/02 07:01:32;;;;;;;15.45;3.67;;;11.90;99.90;;;;;;5051401;28;20041;-63
2022/10/02 07:04:02;;;;;;;14.75;3.03;;;12.00;99.90;;;;;;5031108;28;20045;-63
2022/10/02 07:06:41;;;;;;;14.40;3.42;;;12.10;99.90;;;;;;5048663;28;20040;-63
2022/10/02 07:09:34;;;;;;;12.13;3.45;;;12.20;99.90;;;;;;5049823;28;20103;-63
2022/10/02 07:12:03;;;;;;;9.50;2.42;;;12.30;99.90;;;;;;5049988;28;20043;-64
2022/10/02 07:14:52;;;;;;;11.80;3.00;;;12.40;99.90;;;;;;5050359;28;20044;-64
2022/10/02 07:17:24;;;;;;;10.25;2.95;;;12.40;99.90;;;;;;5032652;28;20401;-65
2022/10/02 07:20:05;;;;;;;12.93;4.57;;;12.40;99.90;;;;;;5048362;28;20068;-66
2022/10/02 07:22:49;;;;;;;14.00;4.13;;;12.30;99.90;;;;;;5049984;28;20045;-64
2022/10/02 07:25:39;;;;;;;11.65;4.47;;;12.20;99.90;;;;;;5049741;28;20071;-64
2022/10/02 07:28:24;;;;;;;9.20;3.83;;;12.20;99.90;;;;;;5049483;28;20148;-64
2022/10/02 07:31:11;;;;;;;9.23;3.28;;;12.20;99.90;;;;;;5059419;28;20091;-63
2022/10/02 07:33:51;;;;;;;6.93;2.63;;;12.20;99.90;;;;;;5041648;28;20359;-64
2022/10/02 07:36:44;;;;;;;8.45;2.90;;;12.20;99.90;;;;;;5026659;28;20052;-64
2022/10/02 07:39:19;;;;;;;8.95;4.30;;;12.20;99.90;;;;;;5045796;28;20064;-64
2022/10/02 07:42:13;;;;;;;15.65;6.93;;;12.20;99.90;;;;;;5030134;28;20048;-65
2022/10/02 07:45:12;;;;;;;19.85;9.52;;;12.20;99.90;;;;;;5028063;28;20132;-65
2022/10/02 07:47:54;;;;;;;26.92;13.18;;;12.20;99.90;;;;;;5030608;28;20589;-65
2022/10/02 07:50:34;;;;;;;18.77;8.80;;;12.20;99.90;;;;;;5028640;28;20037;-64
2022/10/02 07:53:29;;;;;;;18.27;9.88;;;12.20;99.90;;;;;;5030241;28;20041;-65
2022/10/02 07:55:56;;;;;;;16.35;7.10;;;12.20;99.90;;;;;;5036570;28;20128;-64
2022/10/02 07:58:34;;;;;;;12.38;4.07;;;12.10;99.90;;;;;;5012793;28;20045;-63
2022/10/02 08:01:04;;;;;;;11.18;3.28;;;12.20;99.90;;;;;;5042334;28;20059;-63
2022/10/02 08:03:48;;;;;;;14.98;5.00;;;12.30;99.90;;;;;;5031300;28;20474;-63
2022/10/02 08:06:16;;;;;;;15.13;5.40;;;12.30;99.90;;;;;;5032155;28;20120;-63
2022/10/02 08:08:59;;;;;;;12.77;4.15;;;12.30;99.90;;;;;;5049116;28;20086;-63
2022/10/02 08:11:39;;;;;;;13.70;5.30;;;12.40;99.90;;;;;;5049147;28;20033;-63
2022/10/02 08:14:11;;;;;;;10.80;4.55;;;12.40;99.90;;;;;;5042720;28;20048;-63
2022/10/02 08:16:48;;;;;;;13.82;5.07;;;12.50;99.90;;;;;;5047564;28;20056;-63
2022/10/02 08:19:17;;;;;;;19.27;6.43;;;12.50;99.90;;;;;;5031753;28;20055;-62
2022/10/02 08:21:48;;;;;;;22.63;8.73;;;12.50;99.90;;;;;;5065516;28;20095;-63
2022/10/02 08:25:01;;;;;;;10.20;3.88;;;12.60;99.90;;;;;;5047210;28;20072;-63
2022/10/02 08:27:57;;;;;;;10.80;5.30;;;12.70;99.90;;;;;;5027558;28;20359;-63
2022/10/02 08:30:22;;;;;;;11.60;4.75;;;12.80;99.90;;;;;;5046712;28;20129;-63
2022/10/02 08:32:48;;;;;;;11.55;3.47;;;13.00;99.90;;;;;;5081697;28;20119;-63
2022/10/02 08:35:18;;;;;;;10.10;3.85;;;13.10;99.90;;;;;;5046642;28;20045;-63
2022/10/02 08:37:57;;;;;;;15.13;4.43;;;13.20;99.90;;;;;;5037793;28;20062;-63
2022/10/02 08:40:47;;;;;;;11.05;3.67;;;13.30;99.90;;;;;;5066854;28;20048;-63
2022/10/02 08:43:44;;;;;;;8.60;2.97;;;13.40;99.90;;;;;;5037758;28;20052;-63
2022/10/02 08:47:08;;;;;;;11.43;3.55;;;13.50;99.90;;;;;;5047615;28;20533;-64
2022/10/02 08:50:03;;;;;;;9.45;2.70;;;13.60;99.90;;;;;;5062488;28;20557;-64
2022/10/02 08:53:07;;;;;;;7.18;2.05;;;13.70;99.90;;;;;;5044601;28;20407;-64
2022/10/02 08:56:04;;;;;;;11.43;2.90;;;13.80;99.90;;;;;;5041262;28;20115;-63
2022/10/02 08:58:57;;;;;;;8.90;2.92;;;13.90;99.90;;;;;;5063423;28;20048;-63
2022/10/02 09:01:42;;;;;;;11.30;3.08;;;13.80;99.90;;;;;;5048098;28;20151;-63
2022/10/02 09:04:34;;;;;;;12.05;3.33;;;13.80;99.90;;;;;;5043575;28;20166;-63
2022/10/02 09:07:17;;;;;;;12.77;4.15;;;13.70;99.90;;;;;;5045502;28;20049;-63
2022/10/02 09:09:46;;;;;;;14.00;3.30;;;13.70;99.90;;;;;;5081058;28;20436;-63
2022/10/02 09:12:19;;;;;;;14.10;6.65;;;13.60;99.90;;;;;;5077458;28;20036;-63
2022/10/02 09:14:49;;;;;;;14.73;3.40;;;13.70;99.90;;;;;;5045816;28;20044;-64
2022/10/02 09:17:42;;;;;;;13.82;4.15;;;13.80;99.90;;;;;;5047033;28;20056;-64
2022/10/02 09:20:40;;;;;;;14.30;5.13;;;13.80;99.90;;;;;;5046831;28;20052;-63
2022/10/02 09:23:24;;;;;;;16.92;5.13;;;14.00;99.90;;;;;;5034929;28;20098;-64
2022/10/02 09:26:01;;;;;;;13.02;3.90;;;14.10;99.90;;;;;;5084077;28;20063;-64
2022/10/02 09:28:33;;;;;;;12.35;2.75;;;14.10;99.90;;;;;;5049116;28;20045;-63
2022/10/02 09:31:18;;;;;;;10.95;2.97;;;14.30;99.90;;;;;;5052330;28;20137;-63
2022/10/02 09:34:11;;;;;;;14.63;4.03;;;14.40;99.90;;;;;;5084435;28;20504;-63
2022/10/02 09:36:56;;;;;;;13.63;3.15;;;14.40;99.90;;;;;;5049343;28;20386;-63
2022/10/02 09:39:50;;;;;;;14.82;3.53;;;14.60;99.90;;;;;;5050956;28;20400;-63
2022/10/02 09:43:01;;;;;;;11.70;3.22;;;14.60;99.90;;;;;;5050813;28;20128;-67
2022/10/02 09:45:54;;;;;;;12.80;3.65;;;14.70;99.90;;;;;;5050165;28;20061;-63
2022/10/02 09:49:07;;;;;;;11.75;2.72;;;14.80;99.90;;;;;;5032866;28;20513;-64
2022/10/02 09:51:48;;;;;;;13.45;3.20;;;14.80;99.90;;;;;;5051737;28;20055;-63
2022/10/02 09:54:32;;;;;;;19.63;3.85;;;14.90;99.90;;;;;;5033719;28;20073;-64
2022/10/02 09:57:42;;;;;;;11.98;3.75;;;14.90;99.90;;;;;;5036077;28;20052;-63
2022/10/02 10:00:20;;;;;;;7.45;3.05;;;14.90;99.90;;;;;;5050510;28;20053;-63
2022/10/02 10:03:14;;;;;;;15.43;2.95;;;14.90;99.90;;;;;;5049631;28;20516;-63
2022/10/02 10:05:58;;;;;;;17.58;3.80;;;15.00;99.90;;;;;;5048627;28;20409;-63
2022/10/02 10:08:43;;;;;;;11.77;4.15;;;15.00;99.90;;;;;;5083422;28;20051;-63
2022/10/02 10:11:37;;;;;;;15.40;3.72;;;15.10;99.90;;;;;;5050131;28;20679;-63
2022/10/02 10:14:40;;;;;;;10.75;3.45;;;15.20;99.90;;;;;;5050287;28;20178;-64
2022/10/02 10:17:21;;;;;;;12.57;3.25;;;15.30;99.90;;;;;;5049058;28;20055;-63
2022/10/02 10:20:18;;;;;;;10.85;3.05;;;15.30;99.90;;;;;;5037902;28;20045;-63
2022/10/02 10:23:10;;;;;;;14.57;3.38;;;15.40;99.90;;;;;;5043875;28;20498;-64
2022/10/02 10:25:53;;;;;;;14.60;3.95;;;15.40;99.90;;;;;;5051468;28;20494;-64
2022/10/02 10:28:52;;;;;;;11.70;3.58;;;15.50;99.90;;;;;;5050657;28;20174;-64
2022/10/02 10:31:52;;;;;;;11.73;3.22;;;15.50;99.90;;;;;;5029147;28;20041;-63
2022/10/02 10:34:44;;;;;;;14.27;3.72;;;15.40;99.90;;;;;;5049930;28;20071;-63
2022/10/02 10:40:25;;;;;;;12.57;2.78;;;15.40;99.90;;;;;;5049962;28;20045;-64
2022/10/02 10:43:20;;;;;;;11.63;3.20;;;15.50;99.90;;;;;;5033309;28;20048;-64
2022/10/02 10:45:58;;;;;;;12.35;4.00;;;15.50;99.90;;;;;;5049128;28;20061;-64
2022/10/02 10:48:46;;;;;;;12.55;3.10;;;15.40;99.90;;;;;;5050352;28;20045;-63
2022/10/02 10:51:34;;;;;;;11.35;3.03;;;15.30;99.90;;;;;;5040852;28;20131;-63
2022/10/02 10:54:04;;;;;;;16.60;3.75;;;15.30;99.90;;;;;;5048894;28;20037;-63
2022/10/02 10:56:32;;;;;;;12.30;3.15;;;15.30;99.90;;;;;;5049960;28;20432;-63
2022/10/02 10:59:41;;;;;;;12.65;2.92;;;15.40;99.90;;;;;;5032186;28;20044;-63
2022/10/02 11:02:37;;;;;;;15.70;3.05;;;15.50;99.90;;;;;;5049116;28;20494;-63
2022/10/02 11:05:06;;;;;;;10.15;3.47;;;15.60;99.90;;;;;;5039192;28;21131;-64
2022/10/02 11:08:09;;;;;;;10.73;3.22;;;15.60;99.90;;;;;;5050903;28;20049;-63
2022/10/02 11:11:05;;;;;;;11.15;2.58;;;15.60;99.90;;;;;;5049736;28;20532;-65
2022/10/02 11:13:42;;;;;;;11.30;2.67;;;15.60;99.90;;;;;;5048247;28;20813;-63
2022/10/02 11:16:27;;;;;;;11.43;3.28;;;15.60;99.90;;;;;;5029300;28;20053;-63
2022/10/02 11:19:16;;;;;;;11.33;2.93;;;15.50;99.90;;;;;;5032956;28;20397;-63
2022/10/02 11:22:19;;;;;;;15.70;3.63;;;15.50;99.90;;;;;;5050080;28;20393;-63
2022/10/02 11:25:21;;;;;;;12.82;3.03;;;15.70;99.90;;;;;;5050419;28;20056;-63
2022/10/02 11:27:56;;;;;;;12.93;2.80;;;15.80;99.90;;;;;;5028510;28;20532;-63
2022/10/02 11:30:33;;;;;;;13.57;3.20;;;15.90;99.90;;;;;;5033852;28;20112;-63
2022/10/02 11:33:13;;;;;;;14.20;3.25;;;16.00;99.90;;;;;;5052697;28;20542;-63
2022/10/02 11:35:59;;;;;;;11.98;2.65;;;16.10;99.90;;;;;;5048430;28;20482;-63
2022/10/02 11:38:58;;;;;;;11.45;2.72;;;16.20;99.90;;;;;;5030241;28;20096;-63
2022/10/02 11:41:34;;;;;;;11.98;3.13;;;16.40;99.90;;;;;;5028624;28;20045;-63
2022/10/02 11:44:32;;;;;;;7.88;2.17;;;16.30;99.90;;;;;;5029119;28;20042;-63
2022/10/02 11:47:16;;;;;;;12.27;2.92;;;16.40;99.90;;;;;;5028395;28;20060;-63
2022/10/02 11:50:23;;;;;;;8.25;2.17;;;16.30;99.90;;;;;;5041827;28;20123;-63
2022/10/02 11:53:07;;;;;;;12.10;3.25;;;16.30;99.90;;;;;;5039203;28;20056;-63
2022/10/02 11:56:03;;;;;;;10.20;2.72;;;16.20;99.90;;;;;;5047958;28;20047;-63
2022/10/02 11:59:01;;;;;;;10.07;3.15;;;16.20;99.90;;;;;;5050025;28;20061;-63
2022/10/02 12:01:44;;;;;;;15.02;2.90;;;16.20;99.90;;;;;;5031290;28;20080;-63
2022/10/02 12:04:31;;;;;;;8.32;3.33;;;16.20;99.90;;;;;;5048504;28;20486;-63
2022/10/02 12:07:03;;;;;;;10.15;3.03;;;16.20;99.90;;;;;;5029786;28;20095;-63
2022/10/02 12:09:53;;;;;;;9.85;3.00;;;16.20;99.90;;;;;;5028134;28;20098;-63
2022/10/02 12:12:40;;;;;;;8.90;2.75;;;16.30;99.90;;;;;;5032617;28;20086;-63
2022/10/02 12:15:37;;;;;;;17.52;4.55;;;16.30;99.90;;;;;;5041395;28;20500;-63
2022/10/02 12:18:44;;;;;;;12.88;3.53;;;16.50;99.90;;;;;;5043192;28;20045;-63
2022/10/02 12:27:41;;;;;;;14.85;3.20;;;16.30;99.90;;;;;;5048732;28;20048;-63
2022/10/02 12:30:18;;;;;;;12.10;3.10;;;16.20;99.90;;;;;;5027670;28;20045;-63
2022/10/02 12:33:08;;;;;;;11.68;2.90;;;16.30;99.90;;;;;;5040681;28;20432;-63
2022/10/02 12:35:39;;;;;;;10.00;3.00;;;16.40;99.90;;;;;;5046137;28;20548;-63
2022/10/02 12:38:35;;;;;;;14.80;3.47;;;16.40;99.90;;;;;;5047367;28;20559;-63
2022/10/02 12:41:08;;;;;;;11.35;2.95;;;16.50;99.90;;;;;;5081560;28;20044;-63
2022/10/02 12:43:53;;;;;;;10.88;2.95;;;16.50;99.90;;;;;;5080584;28;20048;-62
2022/10/02 12:46:44;;;;;;;11.30;2.97;;;16.60;99.90;;;;;;5048859;28;20138;-63
2022/10/02 12:49:35;;;;;;;13.10;3.38;;;16.60;99.90;;;;;;5049801;28;20040;-63
2022/10/02 12:52:48;;;;;;;14.63;2.92;;;16.50;99.90;;;;;;5046662;28;20579;-63
2022/10/02 12:55:32;;;;;;;14.20;4.07;;;16.40;99.90;;;;;;5047850;28;20144;-62
2022/10/02 12:58:41;;;;;;;10.73;2.80;;;16.20;99.90;;;;;;5045986;28;20033;-63
2022/10/02 13:01:15;;;;;;;13.18;3.55;;;16.10;99.90;;;;;;5028850;28;20055;-62
2022/10/02 13:04:07;;;;;;;13.73;5.15;;;16.00;99.90;;;;;;5049125;28;20101;-63
2022/10/02 13:06:42;;;;;;;10.40;3.03;;;16.00;99.90;;;;;;5048658;28;20045;-63
2022/10/02 13:09:23;;;;;;;14.57;2.72;;;16.00;99.90;;;;;;5063924;28;20045;-63
2022/10/02 13:11:54;;;;;;;15.13;3.13;;;16.10;99.90;;;;;;5048245;28;20197;-63
2022/10/02 13:14:38;;;;;;;8.80;2.25;;;16.20;99.90;;;;;;5064111;28;20053;-63
2022/10/02 13:17:34;;;;;;;11.37;3.37;;;16.20;99.90;;;;;;5080889;28;20449;-63
2022/10/02 13:20:36;;;;;;;17.88;3.13;;;16.10;99.90;;;;;;5040603;28;20279;-63
2022/10/02 13:23:21;;;;;;;13.70;3.72;;;16.00;99.90;;;;;;5034892;28;20044;-63
2022/10/02 13:25:50;;;;;;;13.38;2.53;;;16.10;99.90;;;;;;5080686;28;20432;-63
2022/10/02 13:28:35;;;;;;;10.63;2.60;;;16.10;99.90;;;;;;5080716;28;20048;-63
2022/10/02 13:31:21;;;;;;;8.77;2.38;;;16.20;99.90;;;;;;5048317;28;20504;-63
2022/10/02 13:34:14;;;;;;;15.35;2.55;;;16.20;99.90;;;;;;5047177;28;20103;-63
2022/10/02 13:36:49;;;;;;;12.77;3.78;;;16.30;99.90;;;;;;5079041;28;20045;-63
2022/10/02 13:39:18;;;;;;;16.17;3.08;;;16.30;99.90;;;;;;5048808;28;20046;-63
2022/10/02 13:42:06;;;;;;;9.88;3.42;;;16.40;99.90;;;;;;5048460;28;20052;-63
2022/10/02 13:45:09;;;;;;;8.75;3.75;;;16.40;99.90;;;;;;5047445;28;20447;-63
2022/10/02 13:47:40;;;;;;;12.43;2.20;;;16.40;99.90;;;;;;5037554;28;20537;-63
2022/10/02 13:50:06;;;;;;;12.52;3.03;;;16.30;99.90;;;;;;5048708;28;20040;-62
2022/10/02 13:52:37;;;;;;;12.50;2.78;;;16.20;99.90;;;;;;5046966;28;20049;-62
2022/10/02 13:55:23;;;;;;;11.05;2.70;;;16.10;99.90;;;;;;5047928;28;20051;-63
2022/10/02 13:58:26;;;;;;;11.95;3.03;;;16.10;99.90;;;;;;5064105;28;20056;-62
2022/10/02 14:00:57;;;;;;;10.35;2.65;;;16.10;99.90;;;;;;5046739;28;20060;-63
2022/10/02 14:03:42;;;;;;;10.52;2.55;;;16.20;99.90;;;;;;5046871;28;20536;-63
2022/10/02 14:06:19;;;;;;;13.70;2.80;;;16.20;99.90;;;;;;5048368;28;20513;-62
2022/10/02 14:09:00;;;;;;;8.13;2.60;;;16.20;99.90;;;;;;5047772;28;20490;-63